sensor_id;sensor_type;location;lat;lon;timestamp;P1;durP1;ratioP1;P2;durP2;ratioP2
16524;SDS011;8375;33.594;-117.718;2022-11-11T00:00:06;1.27;;;0.60;;
16524;SDS011;8375;33.594;-117.718;2022-11-11T00:02:36;1.33;;;0.40;;
16524;SDS011;8375;33.594;-117.718;2022-11-11T00:05:05;1.73;;;0.70;;
16524;SDS011;8375;33.594;-117.718;2022-11-11T00:07:39;1.57;;;0.60;;
16524;SDS011;8375;33.594;-117.718;2022-11-11T00:10:08;1.33;;;0.87;;
16524;SDS011;8375;33.594;-117.718;2022-11-11T00:12:36;1.80;;;0.93;;
16524;SDS011;8375;33.594;-117.718;2022-11-11T00:15:06;2.50;;;1.23;;
16524;SDS011;8375;33.594;-117.718;2022-11-11T00:17:35;3.77;;;1.67;;
16524;SDS011;8375;33.594;-117.718;2022-11-11T00:20:20;5.57;;;1.77;;
16524;SDS011;8375;33.594;-117.718;2022-11-11T00:23:08;3.77;;;1.97;;
16524;SDS011;8375;33.594;-117.718;2022-11-11T00:26:04;3.73;;;1.47;;
16524;SDS011;8375;33.594;-117.718;2022-11-11T00:28:33;2.20;;;1.20;;
16524;SDS011;8375;33.594;-117.718;2022-11-11T00:31:03;2.20;;;0.97;;
16524;SDS011;8375;33.594;-117.718;2022-11-11T00:33:32;2.43;;;0.93;;
16524;SDS011;8375;33.594;-117.718;2022-11-11T00:36:00;2.50;;;0.60;;
16524;SDS011;8375;33.594;-117.718;2022-11-11T00:38:30;1.43;;;0.50;;
16524;SDS011;8375;33.594;-117.718;2022-11-11T00:41:14;3.40;;;0.40;;
16524;SDS011;8375;33.594;-117.718;2022-11-11T00:43:45;1.73;;;0.43;;
16524;SDS011;8375;33.594;-117.718;2022-11-11T00:46:14;1.27;;;0.57;;
16524;SDS011;8375;33.594;-117.718;2022-11-11T00:49:00;3.00;;;0.70;;
16524;SDS011;8375;33.594;-117.718;2022-11-11T00:51:45;2.30;;;0.40;;
16524;SDS011;8375;33.594;-117.718;2022-11-11T00:54:16;1.47;;;0.70;;
16524;SDS011;8375;33.594;-117.718;2022-11-11T00:56:45;1.20;;;0.87;;
16524;SDS011;8375;33.594;-117.718;2022-11-11T00:59:13;2.23;;;0.80;;
16524;SDS011;8375;33.594;-117.718;2022-11-11T01:01:43;2.73;;;0.60;;
16524;SDS011;8375;33.594;-117.718;2022-11-11T01:04:11;1.87;;;0.80;;
16524;SDS011;8375;33.594;-117.718;2022-11-11T01:06:40;2.90;;;0.80;;
16524;SDS011;8375;33.594;-117.718;2022-11-11T01:09:09;1.73;;;0.70;;
16524;SDS011;8375;33.594;-117.718;2022-11-11T01:11:39;6.33;;;1.30;;
16524;SDS011;8375;33.594;-117.718;2022-11-11T01:14:07;2.50;;;0.90;;
16524;SDS011;8375;33.594;-117.718;2022-11-11T01:16:36;3.23;;;0.97;;
16524;SDS011;8375;33.594;-117.718;2022-11-11T01:19:05;0.90;;;0.70;;
16524;SDS011;8375;33.594;-117.718;2022-11-11T01:21:33;3.37;;;0.73;;
16524;SDS011;8375;33.594;-117.718;2022-11-11T01:24:02;3.03;;;0.90;;
16524;SDS011;8375;33.594;-117.718;2022-11-11T01:26:30;1.33;;;0.90;;
16524;SDS011;8375;33.594;-117.718;2022-11-11T01:29:01;5.00;;;0.90;;
16524;SDS011;8375;33.594;-117.718;2022-11-11T01:31:30;5.47;;;1.03;;
16524;SDS011;8375;33.594;-117.718;2022-11-11T01:33:59;4.20;;;0.87;;
16524;SDS011;8375;33.594;-117.718;2022-11-11T01:36:28;1.47;;;0.83;;
16524;SDS011;8375;33.594;-117.718;2022-11-11T01:38:57;3.83;;;1.17;;
16524;SDS011;8375;33.594;-117.718;2022-11-11T01:41:27;3.93;;;0.90;;
16524;SDS011;8375;33.594;-117.718;2022-11-11T01:44:06;1.77;;;0.80;;
16524;SDS011;8375;33.594;-117.718;2022-11-11T01:46:47;2.87;;;0.93;;
16524;SDS011;8375;33.594;-117.718;2022-11-11T01:49:24;1.93;;;1.00;;
16524;SDS011;8375;33.594;-117.718;2022-11-11T01:51:58;2.60;;;0.80;;
16524;SDS011;8375;33.594;-117.718;2022-11-11T01:54:34;1.63;;;0.80;;
16524;SDS011;8375;33.594;-117.718;2022-11-11T01:57:07;1.20;;;0.90;;
16524;SDS011;8375;33.594;-117.718;2022-11-11T01:59:41;1.03;;;0.90;;
16524;SDS011;8375;33.594;-117.718;2022-11-11T02:02:14;2.70;;;1.10;;
16524;SDS011;8375;33.594;-117.718;2022-11-11T02:04:47;3.33;;;1.17;;
16524;SDS011;8375;33.594;-117.718;2022-11-11T02:07:33;1.20;;;0.67;;
16524;SDS011;8375;33.594;-117.718;2022-11-11T02:10:02;1.27;;;0.80;;
16524;SDS011;8375;33.594;-117.718;2022-11-11T02:12:35;2.77;;;0.80;;
16524;SDS011;8375;33.594;-117.718;2022-11-11T02:15:21;3.20;;;1.10;;
16524;SDS011;8375;33.594;-117.718;2022-11-11T02:17:50;1.40;;;1.10;;
16524;SDS011;8375;33.594;-117.718;2022-11-11T02:20:21;4.77;;;1.00;;
16524;SDS011;8375;33.594;-117.718;2022-11-11T02:22:54;2.30;;;1.43;;
16524;SDS011;8375;33.594;-117.718;2022-11-11T02:25:27;2.83;;;1.30;;
16524;SDS011;8375;33.594;-117.718;2022-11-11T02:27:59;3.10;;;1.37;;
16524;SDS011;8375;33.594;-117.718;2022-11-11T02:30:30;2.83;;;1.47;;
16524;SDS011;8375;33.594;-117.718;2022-11-11T02:32:59;2.73;;;1.17;;
16524;SDS011;8375;33.594;-117.718;2022-11-11T02:35:30;3.03;;;1.13;;
16524;SDS011;8375;33.594;-117.718;2022-11-11T02:38:00;1.80;;;1.30;;
16524;SDS011;8375;33.594;-117.718;2022-11-11T02:40:36;2.57;;;1.47;;
16524;SDS011;8375;33.594;-117.718;2022-11-11T02:43:28;1.87;;;1.00;;
16524;SDS011;8375;33.594;-117.718;2022-11-11T02:45:58;1.97;;;1.33;;
16524;SDS011;8375;33.594;-117.718;2022-11-11T02:48:27;4.33;;;1.10;;
16524;SDS011;8375;33.594;-117.718;2022-11-11T02:50:57;4.97;;;1.60;;
16524;SDS011;8375;33.594;-117.718;2022-11-11T02:53:26;5.70;;;1.63;;
16524;SDS011;8375;33.594;-117.718;2022-11-11T02:55:56;4.60;;;1.70;;
16524;SDS011;8375;33.594;-117.718;2022-11-11T02:58:24;2.43;;;1.50;;
16524;SDS011;8375;33.594;-117.718;2022-11-11T03:00:53;1.97;;;1.40;;
16524;SDS011;8375;33.594;-117.718;2022-11-11T03:03:22;2.80;;;1.40;;
16524;SDS011;8375;33.594;-117.718;2022-11-11T03:05:50;2.17;;;1.30;;
16524;SDS011;8375;33.594;-117.718;2022-11-11T03:08:19;3.07;;;1.17;;
16524;SDS011;8375;33.594;-117.718;2022-11-11T03:10:48;4.40;;;1.13;;
16524;SDS011;8375;33.594;-117.718;2022-11-11T03:13:18;2.60;;;0.97;;
16524;SDS011;8375;33.594;-117.718;2022-11-11T03:15:46;1.87;;;1.00;;
16524;SDS011;8375;33.594;-117.718;2022-11-11T03:18:16;1.83;;;1.33;;
16524;SDS011;8375;33.594;-117.718;2022-11-11T03:20:44;3.33;;;1.10;;
16524;SDS011;8375;33.594;-117.718;2022-11-11T03:23:31;2.30;;;1.10;;
16524;SDS011;8375;33.594;-117.718;2022-11-11T03:25:59;2.43;;;1.77;;
16524;SDS011;8375;33.594;-117.718;2022-11-11T03:28:30;1.77;;;1.07;;
16524;SDS011;8375;33.594;-117.718;2022-11-11T03:30:58;3.93;;;1.30;;
16524;SDS011;8375;33.594;-117.718;2022-11-11T03:33:30;1.50;;;1.00;;
16524;SDS011;8375;33.594;-117.718;2022-11-11T03:35:58;1.47;;;1.00;;
16524;SDS011;8375;33.594;-117.718;2022-11-11T03:38:27;2.60;;;1.20;;
16524;SDS011;8375;33.594;-117.718;2022-11-11T03:40:55;2.83;;;0.90;;
16524;SDS011;8375;33.594;-117.718;2022-11-11T03:43:25;1.67;;;0.80;;
16524;SDS011;8375;33.594;-117.718;2022-11-11T03:45:58;3.33;;;0.90;;
16524;SDS011;8375;33.594;-117.718;2022-11-11T03:48:28;2.90;;;0.93;;
16524;SDS011;8375;33.594;-117.718;2022-11-11T03:50:58;1.10;;;0.77;;
16524;SDS011;8375;33.594;-117.718;2022-11-11T03:53:26;3.70;;;0.80;;
16524;SDS011;8375;33.594;-117.718;2022-11-11T03:55:55;1.60;;;1.00;;
16524;SDS011;8375;33.594;-117.718;2022-11-11T03:58:23;1.30;;;0.90;;
16524;SDS011;8375;33.594;-117.718;2022-11-11T04:00:52;3.13;;;1.00;;
16524;SDS011;8375;33.594;-117.718;2022-11-11T04:03:23;3.77;;;1.10;;
16524;SDS011;8375;33.594;-117.718;2022-11-11T04:06:08;4.87;;;0.93;;
16524;SDS011;8375;33.594;-117.718;2022-11-11T04:08:54;2.83;;;1.00;;
16524;SDS011;8375;33.594;-117.718;2022-11-11T04:11:40;1.73;;;0.83;;
16524;SDS011;8375;33.594;-117.718;2022-11-11T04:14:13;1.93;;;1.17;;
16524;SDS011;8375;33.594;-117.718;2022-11-11T04:16:58;3.07;;;1.30;;
16524;SDS011;8375;33.594;-117.718;2022-11-11T04:19:28;2.80;;;1.20;;
16524;SDS011;8375;33.594;-117.718;2022-11-11T04:22:13;2.07;;;1.10;;
16524;SDS011;8375;33.594;-117.718;2022-11-11T04:24:43;4.20;;;1.17;;
16524;SDS011;8375;33.594;-117.718;2022-11-11T04:27:28;2.90;;;0.97;;
16524;SDS011;8375;33.594;-117.718;2022-11-11T04:29:57;3.17;;;1.47;;
16524;SDS011;8375;33.594;-117.718;2022-11-11T04:32:24;4.13;;;1.20;;
16524;SDS011;8375;33.594;-117.718;2022-11-11T04:35:05;3.07;;;1.20;;
16524;SDS011;8375;33.594;-117.718;2022-11-11T04:37:35;3.80;;;1.53;;
16524;SDS011;8375;33.594;-117.718;2022-11-11T04:40:12;3.43;;;1.20;;
16524;SDS011;8375;33.594;-117.718;2022-11-11T04:42:57;2.07;;;0.87;;
16524;SDS011;8375;33.594;-117.718;2022-11-11T04:45:26;1.93;;;1.10;;
16524;SDS011;8375;33.594;-117.718;2022-11-11T04:47:53;2.13;;;1.03;;
16524;SDS011;8375;33.594;-117.718;2022-11-11T04:50:25;2.80;;;1.03;;
16524;SDS011;8375;33.594;-117.718;2022-11-11T04:52:55;2.60;;;1.07;;
16524;SDS011;8375;33.594;-117.718;2022-11-11T04:55:24;2.03;;;0.90;;
16524;SDS011;8375;33.594;-117.718;2022-11-11T04:58:10;3.33;;;1.60;;
16524;SDS011;8375;33.594;-117.718;2022-11-11T05:00:38;4.73;;;1.30;;
16524;SDS011;8375;33.594;-117.718;2022-11-11T05:03:08;2.20;;;0.90;;
16524;SDS011;8375;33.594;-117.718;2022-11-11T05:05:45;2.13;;;1.10;;
16524;SDS011;8375;33.594;-117.718;2022-11-11T05:08:28;3.10;;;1.00;;
16524;SDS011;8375;33.594;-117.718;2022-11-11T05:11:13;2.03;;;0.90;;
16524;SDS011;8375;33.594;-117.718;2022-11-11T05:13:42;2.33;;;0.90;;
16524;SDS011;8375;33.594;-117.718;2022-11-11T05:16:28;2.20;;;0.90;;
16524;SDS011;8375;33.594;-117.718;2022-11-11T05:19:16;2.53;;;1.00;;
16524;SDS011;8375;33.594;-117.718;2022-11-11T05:22:05;2.60;;;1.10;;
16524;SDS011;8375;33.594;-117.718;2022-11-11T05:24:38;2.63;;;0.90;;
16524;SDS011;8375;33.594;-117.718;2022-11-11T05:27:23;1.40;;;0.90;;
16524;SDS011;8375;33.594;-117.718;2022-11-11T05:29:52;2.00;;;1.10;;
16524;SDS011;8375;33.594;-117.718;2022-11-11T05:32:21;2.47;;;1.33;;
16524;SDS011;8375;33.594;-117.718;2022-11-11T05:34:50;1.57;;;1.30;;
16524;SDS011;8375;33.594;-117.718;2022-11-11T05:37:21;2.17;;;1.27;;
16524;SDS011;8375;33.594;-117.718;2022-11-11T05:39:50;2.27;;;1.40;;
16524;SDS011;8375;33.594;-117.718;2022-11-11T05:42:18;3.13;;;1.37;;
16524;SDS011;8375;33.594;-117.718;2022-11-11T05:44:47;3.23;;;1.60;;
16524;SDS011;8375;33.594;-117.718;2022-11-11T05:47:16;2.70;;;1.30;;
16524;SDS011;8375;33.594;-117.718;2022-11-11T05:49:44;4.90;;;1.30;;
16524;SDS011;8375;33.594;-117.718;2022-11-11T05:52:13;2.50;;;1.30;;
16524;SDS011;8375;33.594;-117.718;2022-11-11T05:54:45;3.03;;;1.33;;
16524;SDS011;8375;33.594;-117.718;2022-11-11T05:57:14;2.93;;;1.20;;
16524;SDS011;8375;33.594;-117.718;2022-11-11T05:59:42;2.87;;;1.20;;
16524;SDS011;8375;33.594;-117.718;2022-11-11T06:02:12;5.20;;;1.80;;
16524;SDS011;8375;33.594;-117.718;2022-11-11T06:04:41;8.57;;;2.53;;
16524;SDS011;8375;33.594;-117.718;2022-11-11T06:07:10;5.70;;;1.73;;
16524;SDS011;8375;33.594;-117.718;2022-11-11T06:09:38;7.17;;;1.50;;
16524;SDS011;8375;33.594;-117.718;2022-11-11T06:12:09;4.53;;;1.80;;
16524;SDS011;8375;33.594;-117.718;2022-11-11T06:14:37;3.83;;;1.73;;
16524;SDS011;8375;33.594;-117.718;2022-11-11T06:17:06;5.10;;;1.70;;
16524;SDS011;8375;33.594;-117.718;2022-11-11T06:19:34;2.43;;;2.00;;
16524;SDS011;8375;33.594;-117.718;2022-11-11T06:22:03;2.90;;;1.63;;
16524;SDS011;8375;33.594;-117.718;2022-11-11T06:24:32;2.63;;;1.50;;
16524;SDS011;8375;33.594;-117.718;2022-11-11T06:27:00;3.03;;;1.70;;
16524;SDS011;8375;33.594;-117.718;2022-11-11T06:29:29;4.73;;;1.70;;
16524;SDS011;8375;33.594;-117.718;2022-11-11T06:31:58;3.50;;;1.60;;
16524;SDS011;8375;33.594;-117.718;2022-11-11T06:34:26;2.40;;;1.47;;
16524;SDS011;8375;33.594;-117.718;2022-11-11T06:36:55;2.13;;;1.50;;
16524;SDS011;8375;33.594;-117.718;2022-11-11T06:39:24;3.50;;;1.60;;
16524;SDS011;8375;33.594;-117.718;2022-11-11T06:41:53;4.23;;;1.70;;
16524;SDS011;8375;33.594;-117.718;2022-11-11T06:44:21;6.33;;;1.80;;
16524;SDS011;8375;33.594;-117.718;2022-11-11T06:46:51;4.27;;;1.80;;
16524;SDS011;8375;33.594;-117.718;2022-11-11T06:49:20;3.83;;;1.70;;
16524;SDS011;8375;33.594;-117.718;2022-11-11T06:51:49;4.17;;;1.70;;
16524;SDS011;8375;33.594;-117.718;2022-11-11T06:54:17;4.40;;;1.77;;
16524;SDS011;8375;33.594;-117.718;2022-11-11T06:56:46;5.67;;;1.90;;
16524;SDS011;8375;33.594;-117.718;2022-11-11T06:59:15;2.93;;;1.80;;
16524;SDS011;8375;33.594;-117.718;2022-11-11T07:01:44;2.67;;;1.60;;
16524;SDS011;8375;33.594;-117.718;2022-11-11T07:04:14;4.40;;;1.90;;
16524;SDS011;8375;33.594;-117.718;2022-11-11T07:06:42;3.40;;;1.83;;
16524;SDS011;8375;33.594;-117.718;2022-11-11T07:09:11;3.90;;;1.90;;
16524;SDS011;8375;33.594;-117.718;2022-11-11T07:11:39;7.80;;;2.00;;
16524;SDS011;8375;33.594;-117.718;2022-11-11T07:14:08;2.97;;;2.10;;
16524;SDS011;8375;33.594;-117.718;2022-11-11T07:16:37;5.10;;;1.80;;
16524;SDS011;8375;33.594;-117.718;2022-11-11T07:19:05;2.80;;;1.90;;
16524;SDS011;8375;33.594;-117.718;2022-11-11T07:21:35;4.60;;;1.87;;
16524;SDS011;8375;33.594;-117.718;2022-11-11T07:24:04;3.53;;;1.97;;
16524;SDS011;8375;33.594;-117.718;2022-11-11T07:26:33;4.80;;;2.30;;
16524;SDS011;8375;33.594;-117.718;2022-11-11T07:29:01;5.20;;;2.57;;
16524;SDS011;8375;33.594;-117.718;2022-11-11T07:31:30;4.50;;;2.30;;
16524;SDS011;8375;33.594;-117.718;2022-11-11T07:33:58;4.30;;;2.40;;
16524;SDS011;8375;33.594;-117.718;2022-11-11T07:36:27;3.37;;;2.17;;
16524;SDS011;8375;33.594;-117.718;2022-11-11T07:38:57;4.57;;;2.30;;
16524;SDS011;8375;33.594;-117.718;2022-11-11T07:41:26;5.17;;;2.40;;
16524;SDS011;8375;33.594;-117.718;2022-11-11T07:43:55;4.23;;;2.37;;
16524;SDS011;8375;33.594;-117.718;2022-11-11T07:46:24;6.33;;;2.90;;
16524;SDS011;8375;33.594;-117.718;2022-11-11T07:48:52;4.70;;;2.50;;
16524;SDS011;8375;33.594;-117.718;2022-11-11T07:51:21;6.43;;;2.87;;
16524;SDS011;8375;33.594;-117.718;2022-11-11T07:53:49;5.60;;;2.80;;
16524;SDS011;8375;33.594;-117.718;2022-11-11T07:56:19;5.77;;;3.20;;
16524;SDS011;8375;33.594;-117.718;2022-11-11T07:58:48;3.50;;;2.33;;
16524;SDS011;8375;33.594;-117.718;2022-11-11T08:01:17;7.33;;;2.63;;
16524;SDS011;8375;33.594;-117.718;2022-11-11T08:03:46;3.83;;;2.90;;
16524;SDS011;8375;33.594;-117.718;2022-11-11T08:06:17;5.50;;;2.53;;
16524;SDS011;8375;33.594;-117.718;2022-11-11T08:08:46;7.20;;;2.77;;
16524;SDS011;8375;33.594;-117.718;2022-11-11T08:11:16;5.10;;;2.57;;
16524;SDS011;8375;33.594;-117.718;2022-11-11T08:14:07;4.90;;;2.77;;
16524;SDS011;8375;33.594;-117.718;2022-11-11T08:16:34;4.97;;;2.40;;
16524;SDS011;8375;33.594;-117.718;2022-11-11T08:19:03;4.07;;;2.70;;
16524;SDS011;8375;33.594;-117.718;2022-11-11T08:21:32;4.77;;;2.70;;
16524;SDS011;8375;33.594;-117.718;2022-11-11T08:24:01;4.80;;;3.30;;
16524;SDS011;8375;33.594;-117.718;2022-11-11T08:26:30;4.83;;;3.00;;
16524;SDS011;8375;33.594;-117.718;2022-11-11T08:28:58;5.60;;;3.70;;
16524;SDS011;8375;33.594;-117.718;2022-11-11T08:31:28;5.60;;;3.10;;
16524;SDS011;8375;33.594;-117.718;2022-11-11T08:33:59;5.60;;;2.90;;
16524;SDS011;8375;33.594;-117.718;2022-11-11T08:36:28;5.87;;;3.37;;
16524;SDS011;8375;33.594;-117.718;2022-11-11T08:38:56;4.90;;;3.40;;
16524;SDS011;8375;33.594;-117.718;2022-11-11T08:41:25;4.70;;;3.10;;
16524;SDS011;8375;33.594;-117.718;2022-11-11T08:43:54;4.77;;;3.07;;
16524;SDS011;8375;33.594;-117.718;2022-11-11T08:46:24;6.20;;;3.30;;
16524;SDS011;8375;33.594;-117.718;2022-11-11T08:48:55;5.80;;;3.20;;
16524;SDS011;8375;33.594;-117.718;2022-11-11T08:51:23;6.60;;;3.43;;
16524;SDS011;8375;33.594;-117.718;2022-11-11T08:53:52;9.93;;;3.87;;
16524;SDS011;8375;33.594;-117.718;2022-11-11T08:56:20;6.30;;;3.47;;
16524;SDS011;8375;33.594;-117.718;2022-11-11T08:58:49;6.23;;;3.70;;
16524;SDS011;8375;33.594;-117.718;2022-11-11T09:01:18;6.07;;;3.37;;
16524;SDS011;8375;33.594;-117.718;2022-11-11T09:38:54;4.60;;;3.23;;
16524;SDS011;8375;33.594;-117.718;2022-11-11T09:41:23;5.50;;;3.30;;
16524;SDS011;8375;33.594;-117.718;2022-11-11T09:44:03;5.93;;;3.73;;
16524;SDS011;8375;33.594;-117.718;2022-11-11T09:46:33;5.83;;;3.37;;
16524;SDS011;8375;33.594;-117.718;2022-11-11T09:49:14;4.23;;;3.17;;
16524;SDS011;8375;33.594;-117.718;2022-11-11T09:51:55;6.13;;;3.00;;
16524;SDS011;8375;33.594;-117.718;2022-11-11T09:54:34;4.87;;;2.80;;
16524;SDS011;8375;33.594;-117.718;2022-11-11T09:57:09;5.57;;;2.87;;
16524;SDS011;8375;33.594;-117.718;2022-11-11T09:59:43;4.90;;;3.30;;
16524;SDS011;8375;33.594;-117.718;2022-11-11T10:02:18;5.43;;;3.17;;
16524;SDS011;8375;33.594;-117.718;2022-11-11T10:04:55;4.87;;;3.27;;
16524;SDS011;8375;33.594;-117.718;2022-11-11T10:07:33;4.70;;;3.33;;
16524;SDS011;8375;33.594;-117.718;2022-11-11T10:10:13;4.23;;;3.23;;
16524;SDS011;8375;33.594;-117.718;2022-11-11T10:12:50;5.93;;;3.37;;
16524;SDS011;8375;33.594;-117.718;2022-11-11T10:15:22;3.93;;;3.30;;
16524;SDS011;8375;33.594;-117.718;2022-11-11T10:18:07;6.10;;;2.80;;
16524;SDS011;8375;33.594;-117.718;2022-11-11T10:20:47;4.97;;;2.27;;
16524;SDS011;8375;33.594;-117.718;2022-11-11T10:23:23;3.50;;;2.50;;
16524;SDS011;8375;33.594;-117.718;2022-11-11T10:25:55;3.60;;;2.30;;
16524;SDS011;8375;33.594;-117.718;2022-11-11T10:28:27;2.87;;;2.33;;
16524;SDS011;8375;33.594;-117.718;2022-11-11T10:30:59;2.93;;;2.30;;
16524;SDS011;8375;33.594;-117.718;2022-11-11T10:33:30;5.60;;;3.13;;
16524;SDS011;8375;33.594;-117.718;2022-11-11T10:36:08;4.97;;;3.20;;
16524;SDS011;8375;33.594;-117.718;2022-11-11T10:38:44;4.73;;;2.67;;
16524;SDS011;8375;33.594;-117.718;2022-11-11T10:41:19;3.83;;;2.77;;
16524;SDS011;8375;33.594;-117.718;2022-11-11T10:43:52;4.87;;;2.50;;
16524;SDS011;8375;33.594;-117.718;2022-11-11T10:46:21;4.30;;;2.87;;
16524;SDS011;8375;33.594;-117.718;2022-11-11T10:48:54;5.07;;;3.07;;
16524;SDS011;8375;33.594;-117.718;2022-11-11T10:51:26;4.70;;;2.77;;
16524;SDS011;8375;33.594;-117.718;2022-11-11T10:54:00;6.03;;;2.67;;
16524;SDS011;8375;33.594;-117.718;2022-11-11T10:56:35;3.53;;;2.77;;
16524;SDS011;8375;33.594;-117.718;2022-11-11T10:59:12;4.93;;;3.20;;
16524;SDS011;8375;33.594;-117.718;2022-11-11T11:01:47;5.10;;;3.20;;
16524;SDS011;8375;33.594;-117.718;2022-11-11T11:04:25;6.23;;;4.13;;
16524;SDS011;8375;33.594;-117.718;2022-11-11T11:06:58;6.30;;;3.73;;
16524;SDS011;8375;33.594;-117.718;2022-11-11T11:09:30;5.93;;;3.97;;
16524;SDS011;8375;33.594;-117.718;2022-11-11T11:12:08;6.03;;;4.13;;
16524;SDS011;8375;33.594;-117.718;2022-11-11T11:14:41;7.77;;;3.73;;
16524;SDS011;8375;33.594;-117.718;2022-11-11T11:17:12;5.40;;;3.37;;
16524;SDS011;8375;33.594;-117.718;2022-11-11T11:19:44;5.67;;;3.30;;
16524;SDS011;8375;33.594;-117.718;2022-11-11T11:22:43;5.67;;;3.53;;
16524;SDS011;8375;33.594;-117.718;2022-11-11T11:25:13;5.90;;;3.33;;
16524;SDS011;8375;33.594;-117.718;2022-11-11T11:27:45;4.77;;;3.57;;
16524;SDS011;8375;33.594;-117.718;2022-11-11T11:30:16;8.40;;;3.70;;
16524;SDS011;8375;33.594;-117.718;2022-11-11T11:32:55;4.70;;;3.23;;
16524;SDS011;8375;33.594;-117.718;2022-11-11T11:35:31;5.73;;;3.20;;
16524;SDS011;8375;33.594;-117.718;2022-11-11T11:38:03;4.93;;;3.07;;
16524;SDS011;8375;33.594;-117.718;2022-11-11T11:40:43;5.30;;;3.00;;
16524;SDS011;8375;33.594;-117.718;2022-11-11T11:43:32;3.87;;;2.93;;
16524;SDS011;8375;33.594;-117.718;2022-11-11T11:46:02;4.63;;;3.20;;
16524;SDS011;8375;33.594;-117.718;2022-11-11T11:48:44;4.27;;;3.07;;
16524;SDS011;8375;33.594;-117.718;2022-11-11T11:51:27;5.97;;;2.70;;
16524;SDS011;8375;33.594;-117.718;2022-11-11T11:54:11;4.80;;;2.70;;
16524;SDS011;8375;33.594;-117.718;2022-11-11T11:56:51;3.87;;;2.67;;
16524;SDS011;8375;33.594;-117.718;2022-11-11T11:59:27;4.60;;;2.47;;
16524;SDS011;8375;33.594;-117.718;2022-11-11T12:02:06;4.07;;;2.50;;
16524;SDS011;8375;33.594;-117.718;2022-11-11T12:05:01;3.13;;;2.00;;
16524;SDS011;8375;33.594;-117.718;2022-11-11T12:07:44;4.43;;;2.43;;
16524;SDS011;8375;33.594;-117.718;2022-11-11T12:10:32;3.20;;;2.00;;
16524;SDS011;8375;33.594;-117.718;2022-11-11T12:13:11;3.73;;;2.23;;
16524;SDS011;8375;33.594;-117.718;2022-11-11T12:15:54;2.73;;;2.10;;
16524;SDS011;8375;33.594;-117.718;2022-11-11T12:18:40;2.27;;;1.90;;
16524;SDS011;8375;33.594;-117.718;2022-11-11T12:21:20;3.10;;;2.33;;
16524;SDS011;8375;33.594;-117.718;2022-11-11T12:23:55;4.93;;;2.10;;
16524;SDS011;8375;33.594;-117.718;2022-11-11T12:26:29;3.73;;;2.00;;
16524;SDS011;8375;33.594;-117.718;2022-11-11T12:29:08;5.07;;;2.27;;
16524;SDS011;8375;33.594;-117.718;2022-11-11T12:31:52;2.70;;;1.60;;
16524;SDS011;8375;33.594;-117.718;2022-11-11T12:34:35;3.60;;;1.60;;
16524;SDS011;8375;33.594;-117.718;2022-11-11T12:37:14;2.53;;;1.50;;
16524;SDS011;8375;33.594;-117.718;2022-11-11T12:39:56;2.77;;;1.63;;
16524;SDS011;8375;33.594;-117.718;2022-11-11T12:42:38;4.30;;;1.57;;
16524;SDS011;8375;33.594;-117.718;2022-11-11T12:45:16;2.07;;;1.20;;
16524;SDS011;8375;33.594;-117.718;2022-11-11T12:47:50;3.87;;;2.30;;
16524;SDS011;8375;33.594;-117.718;2022-11-11T12:50:32;3.90;;;2.10;;
16524;SDS011;8375;33.594;-117.718;2022-11-11T12:53:18;2.13;;;1.47;;
16524;SDS011;8375;33.594;-117.718;2022-11-11T12:55:57;2.57;;;1.67;;
16524;SDS011;8375;33.594;-117.718;2022-11-11T12:58:36;3.50;;;1.53;;
16524;SDS011;8375;33.594;-117.718;2022-11-11T13:01:16;2.23;;;1.23;;
16524;SDS011;8375;33.594;-117.718;2022-11-11T13:03:58;4.67;;;1.70;;
16524;SDS011;8375;33.594;-117.718;2022-11-11T13:06:44;2.00;;;1.23;;
16524;SDS011;8375;33.594;-117.718;2022-11-11T13:09:28;2.13;;;1.17;;
16524;SDS011;8375;33.594;-117.718;2022-11-11T13:12:12;1.63;;;1.30;;
16524;SDS011;8375;33.594;-117.718;2022-11-11T13:14:48;2.80;;;1.40;;
16524;SDS011;8375;33.594;-117.718;2022-11-11T13:17:25;2.33;;;1.23;;
16524;SDS011;8375;33.594;-117.718;2022-11-11T13:19:56;2.17;;;1.40;;
16524;SDS011;8375;33.594;-117.718;2022-11-11T13:22:28;2.53;;;1.30;;
16524;SDS011;8375;33.594;-117.718;2022-11-11T13:24:59;2.60;;;1.07;;
16524;SDS011;8375;33.594;-117.718;2022-11-11T13:27:33;2.73;;;1.20;;
16524;SDS011;8375;33.594;-117.718;2022-11-11T13:30:21;3.20;;;1.10;;
16524;SDS011;8375;33.594;-117.718;2022-11-11T13:33:04;3.73;;;1.80;;
16524;SDS011;8375;33.594;-117.718;2022-11-11T13:35:37;2.93;;;1.60;;
16524;SDS011;8375;33.594;-117.718;2022-11-11T13:38:11;3.17;;;1.60;;
16524;SDS011;8375;33.594;-117.718;2022-11-11T13:40:55;2.27;;;1.30;;
16524;SDS011;8375;33.594;-117.718;2022-11-11T13:43:28;1.37;;;1.00;;
16524;SDS011;8375;33.594;-117.718;2022-11-11T13:45:59;2.00;;;1.10;;
16524;SDS011;8375;33.594;-117.718;2022-11-11T13:48:30;5.13;;;1.10;;
16524;SDS011;8375;33.594;-117.718;2022-11-11T13:53:58;1.17;;;0.83;;
16524;SDS011;8375;33.594;-117.718;2022-11-11T13:56:30;1.67;;;0.73;;
16524;SDS011;8375;33.594;-117.718;2022-11-11T13:59:05;2.60;;;0.90;;
16524;SDS011;8375;33.594;-117.718;2022-11-11T14:01:36;2.63;;;0.73;;
16524;SDS011;8375;33.594;-117.718;2022-11-11T14:04:06;0.80;;;0.80;;
16524;SDS011;8375;33.594;-117.718;2022-11-11T14:06:47;1.57;;;0.90;;
16524;SDS011;8375;33.594;-117.718;2022-11-11T14:15:11;2.03;;;0.80;;
16524;SDS011;8375;33.594;-117.718;2022-11-11T14:18:00;0.80;;;0.77;;
16524;SDS011;8375;33.594;-117.718;2022-11-11T14:20:36;1.20;;;0.70;;
16524;SDS011;8375;33.594;-117.718;2022-11-11T14:23:29;1.63;;;1.00;;
16524;SDS011;8375;33.594;-117.718;2022-11-11T14:28:51;1.27;;;1.03;;
16524;SDS011;8375;33.594;-117.718;2022-11-11T14:34:26;1.47;;;0.77;;
16524;SDS011;8375;33.594;-117.718;2022-11-11T14:37:16;3.67;;;1.00;;
16524;SDS011;8375;33.594;-117.718;2022-11-11T14:39:55;2.33;;;1.20;;
16524;SDS011;8375;33.594;-117.718;2022-11-11T14:42:42;2.27;;;1.30;;
16524;SDS011;8375;33.594;-117.718;2022-11-11T14:54:35;3.73;;;1.57;;
16524;SDS011;8375;33.594;-117.718;2022-11-11T14:57:21;2.37;;;1.43;;
16524;SDS011;8375;33.594;-117.718;2022-11-11T14:59:53;2.80;;;1.50;;
16524;SDS011;8375;33.594;-117.718;2022-11-11T15:02:28;2.93;;;1.47;;
16524;SDS011;8375;33.594;-117.718;2022-11-11T15:05:00;2.47;;;1.53;;
16524;SDS011;8375;33.594;-117.718;2022-11-11T15:07:51;3.20;;;1.60;;
16524;SDS011;8375;33.594;-117.718;2022-11-11T15:10:36;4.07;;;1.50;;
16524;SDS011;8375;33.594;-117.718;2022-11-11T15:16:35;2.70;;;1.80;;
16524;SDS011;8375;33.594;-117.718;2022-11-11T15:19:22;3.03;;;1.60;;
16524;SDS011;8375;33.594;-117.718;2022-11-11T15:22:09;3.30;;;1.90;;
16524;SDS011;8375;33.594;-117.718;2022-11-11T15:24:55;2.50;;;1.60;;
16524;SDS011;8375;33.594;-117.718;2022-11-11T15:27:35;2.87;;;2.10;;
16524;SDS011;8375;33.594;-117.718;2022-11-11T15:30:11;4.30;;;2.40;;
16524;SDS011;8375;33.594;-117.718;2022-11-11T15:32:44;4.80;;;3.47;;
16524;SDS011;8375;33.594;-117.718;2022-11-11T15:35:33;4.57;;;4.00;;
16524;SDS011;8375;33.594;-117.718;2022-11-11T15:38:09;4.00;;;3.60;;
16524;SDS011;8375;33.594;-117.718;2022-11-11T15:40:43;4.73;;;2.50;;
16524;SDS011;8375;33.594;-117.718;2022-11-11T15:43:17;4.17;;;2.33;;
16524;SDS011;8375;33.594;-117.718;2022-11-11T15:45:51;5.40;;;2.00;;
16524;SDS011;8375;33.594;-117.718;2022-11-11T15:48:22;3.60;;;2.50;;
16524;SDS011;8375;33.594;-117.718;2022-11-11T15:50:53;6.63;;;1.93;;
16524;SDS011;8375;33.594;-117.718;2022-11-11T15:53:22;4.43;;;2.20;;
16524;SDS011;8375;33.594;-117.718;2022-11-11T15:55:52;3.03;;;2.45;;
16524;SDS011;8375;33.594;-117.718;2022-11-11T15:58:25;6.55;;;2.47;;
16524;SDS011;8375;33.594;-117.718;2022-11-11T16:00:56;5.45;;;2.00;;